Terminal Aerodrome Forecast
Issued by NWS

Current Version | Previous Version | Text Only | Print | Product List | Glossary On
Versions: 1 2 3 4 5 6 7 8 9 10 11 12 13 14 15 16 17 18 19 20 21 22 23 24 25 26 27 28 29 30 31
000
FTAK31 PANC 260302 AAB
TAFASN
TAF AMD
PASN 260302Z 2603/2624 22020KT 3SM -RA BR BKN025 OVC035
     FM260600 21014KT 2SM -RA BR OVC003
     FM262100 22010KT 4SM -RA BR SCT003 OVC007=

USA.gov is the U.S. government's official web portal to all federal, state and local government web resources and services.